Lechlade, United Kingdom
Current Conditions -  °F | °C
As of 5:58 PM on Friday 19 Dec 2014 (Local Time) from EGVA Reporting Station
Scattered Clouds Scattered Clouds  
Wind Chill: 35°   Ceiling: Unl
Heat Index: 41°   Visibility: 6mi
Dew Point: 36°   Wind: 9mph
Humidity: 83%   Direction: 240°WSW
Pressure: 30.13"   Gusts: NA
Location:  51.69°N, 1.69°W
Report Text: EGVA 191758Z AUTO 24008KT 9999 SCT046 05/02 A3013 RMK AO2 SLP208 T00480021 10090 20044 52027
Loading
Personal Weather Stations






























Interactive Weather Map New forecast layout! Learn more

10-Day Weather Forecast

Advertisements
Track Severe Weather on mobile